Time;durP1;ratioP1;P1;durP2;ratioP2;P2;SDS_P1;SDS_P2;PMS_P1;PMS_P2;Temp;Humidity;BMP_temperature;BMP_pressure;BME280_temperature;BME280_humidity;BME280_pressure;Samples;Min_cycle;Max_cycle;Signal;HPM_P1;HPM_P2
2021/07/24 00:01:56;;;;;;;;;13.75;13.50;;;;;25.41;43.40;99538.47;5015987;28;45208;-83
2021/07/24 00:04:22;;;;;;;;;18.50;13.25;;;;;25.39;43.73;99526.94;5015794;28;45319;-83
2021/07/24 00:06:47;;;;;;;;;11.50;11.50;;;;;25.42;43.59;99539.31;5015971;28;45236;-83
2021/07/24 00:09:13;;;;;;;;;14.75;13.25;;;;;25.41;44.30;99549.34;5015755;28;45924;-83
2021/07/24 00:11:39;;;;;;;;;16.00;14.00;;;;;25.40;43.66;99542.22;5015807;28;45257;-82
2021/07/24 00:14:05;;;;;;;;;16.00;13.50;;;;;25.39;43.66;99535.09;5015834;28;45259;-83
2021/07/24 00:16:30;;;;;;;;;16.00;13.00;;;;;25.36;44.23;99546.41;5015871;28;45207;-83
2021/07/24 00:18:55;;;;;;;;;16.50;14.00;;;;;25.32;43.80;99537.84;5015602;28;45256;-83
2021/07/24 00:21:21;;;;;;;;;14.00;12.00;;;;;25.26;44.24;99526.91;5015453;28;45260;-83
2021/07/24 00:23:46;;;;;;;;;15.50;14.25;;;;;25.27;44.76;99517.69;5015737;28;45525;-82
2021/07/24 00:26:13;;;;;;;;;17.25;12.50;;;;;25.24;44.97;99534.41;5015620;28;45101;-83
2021/07/24 00:28:39;;;;;;;;;17.25;14.75;;;;;25.18;44.18;99522.47;5015498;28;45230;-83
2021/07/24 00:31:05;;;;;;;;;15.00;14.00;;;;;25.14;44.19;99508.47;5015393;28;45379;-83
2021/07/24 00:33:30;;;;;;;;;13.75;12.00;;;;;25.11;44.05;99492.56;5015573;28;45180;-83
2021/07/24 00:35:56;;;;;;;;;17.50;16.75;;;;;25.10;44.24;99500.94;5017095;28;45085;-83
2021/07/24 00:38:22;;;;;;;;;14.75;12.50;;;;;25.06;44.79;99511.38;5018546;28;46190;-83
2021/07/24 00:40:53;;;;;;;;;12.25;11.00;;;;;25.01;44.50;99518.47;5018658;28;45207;-83
2021/07/24 00:43:24;;;;;;;;;14.25;14.00;;;;;24.91;45.06;99519.69;5018950;28;45434;-82
2021/07/24 00:45:53;;;;;;;;;20.75;18.00;;;;;24.90;44.92;99528.88;5018810;28;45339;-83
2021/07/24 00:48:22;;;;;;;;;17.00;16.00;;;;;24.79;45.24;99541.16;5018678;28;46340;-83
2021/07/24 00:50:49;;;;;;;;;16.50;14.25;;;;;24.72;45.73;99531.31;5018475;28;45291;-82
2021/07/24 00:53:21;;;;;;;;;25.25;22.50;;;;;24.69;46.03;99534.44;5018910;28;45180;-83
2021/07/24 00:55:48;;;;;;;;;18.25;14.25;;;;;24.65;45.32;99525.84;5018686;28;45325;-83
2021/07/24 00:58:23;;;;;;;;;18.75;17.00;;;;;24.60;46.04;99525.63;5018837;28;45939;-83
2021/07/24 01:00:48;;;;;;;;;19.50;17.75;;;;;24.54;46.24;99523.66;5017750;28;46028;-82
2021/07/24 01:03:14;;;;;;;;;16.00;15.00;;;;;24.47;46.74;99531.81;5018563;28;45219;-83
2021/07/24 01:05:40;;;;;;;;;16.75;15.50;;;;;24.39;46.91;99538.22;5018480;28;45200;-82
2021/07/24 01:08:05;;;;;;;;;17.50;14.00;;;;;24.33;47.64;99541.75;5018361;28;46212;-82
2021/07/24 01:10:31;;;;;;;;;16.25;14.00;;;;;24.29;48.02;99546.72;5018122;28;45192;-82
2021/07/24 01:12:56;;;;;;;;;19.00;16.25;;;;;24.20;48.20;99549.78;5018387;28;45169;-83
2021/07/24 01:15:22;;;;;;;;;15.25;14.50;;;;;24.13;48.89;99547.88;5018522;28;45228;-83
2021/07/24 01:17:47;;;;;;;;;14.25;14.00;;;;;24.05;49.15;99547.19;5018404;28;45251;-83
2021/07/24 01:20:13;;;;;;;;;15.00;13.50;;;;;23.94;50.29;99548.56;5018095;28;45232;-83
2021/07/24 01:22:38;;;;;;;;;14.50;12.50;;;;;23.86;50.67;99554.97;5018306;28;45209;-82
2021/07/24 01:25:04;;;;;;;;;13.50;12.00;;;;;23.82;50.91;99545.53;5018091;28;45137;-83
2021/07/24 01:27:29;;;;;;;;;12.50;11.75;;;;;23.76;51.23;99544.44;5018132;28;46295;-83
2021/07/24 01:29:55;;;;;;;;;10.50;10.50;;;;;23.76;51.73;99549.03;5017622;28;45148;-83
2021/07/24 01:32:20;;;;;;;;;12.75;10.50;;;;;23.71;52.67;99541.44;5018568;28;45258;-83
2021/07/24 01:34:46;;;;;;;;;12.00;11.50;;;;;23.65;52.78;99550.38;5018159;28;45109;-83
2021/07/24 01:37:11;;;;;;;;;9.25;9.00;;;;;23.57;52.95;99545.94;5000178;28;47199;-83
2021/07/24 01:39:37;;;;;;;;;11.00;10.00;;;;;23.53;54.47;99547.38;5017687;28;45369;-82
2021/07/24 01:42:02;;;;;;;;;11.25;9.00;;;;;23.49;54.62;99545.25;5018120;28;45568;-83
2021/07/24 01:44:28;;;;;;;;;10.00;10.00;;;;;23.44;55.12;99543.94;5017602;28;45199;-83
2021/07/24 01:46:53;;;;;;;;;10.00;9.00;;;;;23.39;54.54;99542.84;5017368;28;45273;-83
2021/07/24 01:55:11;;;;;;;;;11.75;11.75;;;;;23.35;55.17;99572.22;5017459;28;45263;-83
2021/07/24 01:57:43;;;;;;;;;8.25;8.25;;;;;23.34;55.09;99569.69;5017722;28;45268;-83
2021/07/24 02:00:10;;;;;;;;;10.50;10.50;;;;;23.28;55.29;99557.75;5017254;28;46107;-83
2021/07/24 02:02:37;;;;;;;;;11.00;9.00;;;;;23.23;55.67;99555.63;5018055;28;45245;-83
2021/07/24 02:05:05;;;;;;;;;11.00;11.00;;;;;23.31;56.05;99570.91;5017621;28;45268;-83
2021/07/24 02:07:36;;;;;;;;;13.00;10.00;;;;;23.31;55.90;99572.78;4999804;28;48599;-83
2021/07/24 02:10:02;;;;;;;;;11.50;10.00;;;;;23.31;55.76;99570.09;5017375;28;45588;-83
2021/07/24 02:12:27;;;;;;;;;11.50;9.25;;;;;23.30;55.66;99565.69;5017786;28;45173;-83
2021/07/24 02:14:53;;;;;;;;;9.75;9.75;;;;;23.29;55.54;99561.28;5017403;28;45308;-82
2021/07/24 02:17:18;;;;;;;;;8.00;7.25;;;;;23.36;55.86;99564.91;5017488;28;46111;-83
2021/07/24 02:19:44;;;;;;;;;9.25;9.25;;;;;23.34;55.65;99556.13;5017380;28;45168;-83
2021/07/24 02:22:09;;;;;;;;;10.50;9.50;;;;;23.40;55.34;99566.19;5017655;28;45301;-82
2021/07/24 02:24:34;;;;;;;;;7.25;7.25;;;;;23.33;55.51;99557.16;5017325;28;45153;-83
2021/07/24 02:27:06;;;;;;;;;9.25;9.00;;;;;23.39;54.91;99578.09;5017158;28;46219;-83
2021/07/24 02:29:31;;;;;;;;;6.75;6.75;;;;;23.41;55.57;99576.84;5017171;28;45454;-83
2021/07/24 02:31:57;;;;;;;;;8.00;7.67;;;;;23.41;55.03;99563.28;5017633;28;45244;-83
2021/07/24 02:34:22;;;;;;;;;5.75;5.75;;;;;23.39;54.64;99573.50;5017171;28;45090;-83
2021/07/24 02:36:47;;;;;;;;;7.50;6.75;;;;;23.38;55.18;99576.41;5017176;28;45953;-83
2021/07/24 02:39:13;;;;;;;;;8.00;7.50;;;;;23.33;54.65;99577.00;5016953;28;45295;-83
2021/07/24 02:41:38;;;;;;;;;5.25;5.00;;;;;23.30;54.87;99571.97;5017276;28;45207;-83
2021/07/24 02:44:03;;;;;;;;;4.50;4.50;;;;;23.17;54.94;99553.66;5016761;28;45339;-83
2021/07/24 02:46:29;;;;;;;;;7.25;5.25;;;;;23.18;54.93;99562.66;4998998;28;48084;-83
2021/07/24 02:48:54;;;;;;;;;5.50;5.00;;;;;23.10;54.34;99556.28;5017023;28;45205;-83
2021/07/24 02:51:19;;;;;;;;;5.25;5.25;;;;;23.01;54.82;99556.56;5016836;28;45054;-83
2021/07/24 02:53:45;;;;;;;;;5.00;5.00;;;;;22.94;54.62;99564.63;4999440;28;45228;-82
2021/07/24 02:56:10;;;;;;;;;4.00;4.00;;;;;22.90;54.48;99568.72;5016602;28;45263;-82
2021/07/24 02:58:35;;;;;;;;;3.75;3.00;;;;;22.79;54.61;99545.69;4998087;28;45486;-83
2021/07/24 03:01:08;;;;;;;;;5.00;4.75;;;;;22.79;54.58;99552.94;5016734;28;45204;-83
2021/07/24 03:03:34;;;;;;;;;6.50;5.00;;;;;22.75;54.58;99566.06;5016903;28;45195;-83
2021/07/24 03:05:59;;;;;;;;;4.50;4.50;;;;;22.67;54.91;99556.13;5016361;28;45253;-82
2021/07/24 03:08:24;;;;;;;;;6.00;5.00;;;;;22.62;55.26;99569.44;5016629;28;45212;-83
2021/07/24 03:10:50;;;;;;;;;3.75;3.75;;;;;22.57;55.13;99564.59;5015706;28;45154;-83
2021/07/24 03:13:15;;;;;;;;;6.25;6.25;;;;;22.51;55.60;99567.19;5016776;28;45216;-83
2021/07/24 03:15:40;;;;;;;;;4.00;3.00;;;;;22.47;55.45;99568.59;5016114;28;46476;-83
2021/07/24 03:18:06;;;;;;;;;6.25;5.00;;;;;22.40;55.16;99560.34;5016267;28;45242;-82
2021/07/24 03:20:31;;;;;;;;;5.25;5.25;;;;;22.35;55.74;99566.34;5015976;28;45266;-83
2021/07/24 03:22:59;;;;;;;;;3.75;3.75;;;;;22.27;56.42;99565.56;5016795;28;45120;-83
2021/07/24 03:25:25;;;;;;;;;5.75;4.00;;;;;22.21;55.55;99575.25;5015692;28;45927;-83
2021/07/24 03:27:50;;;;;;;;;5.25;4.25;;;;;22.16;56.36;99581.22;5015972;28;45251;-83
2021/07/24 03:30:15;;;;;;;;;7.00;6.00;;;;;22.10;56.18;99579.25;5016037;28;45235;-83
2021/07/24 03:32:41;;;;;;;;;6.25;4.00;;;;;22.02;56.48;99573.94;5016493;28;45254;-83
2021/07/24 03:35:06;;;;;;;;;5.00;5.00;;;;;21.99;56.58;99575.13;5016020;28;45164;-83
2021/07/24 03:37:32;;;;;;;;;3.75;3.75;;;;;21.98;56.40;99581.56;5016418;28;45249;-83
2021/07/24 03:39:57;;;;;;;;;3.75;3.75;;;;;21.95;56.44;99578.38;5016433;28;45251;-83
2021/07/24 03:42:22;;;;;;;;;6.00;4.00;;;;;21.89;56.54;99571.84;5016538;28;45200;-83
2021/07/24 03:44:47;;;;;;;;;4.25;4.25;;;;;21.80;56.01;99570.22;5015739;28;46490;-83
2021/07/24 03:47:13;;;;;;;;;5.00;3.75;;;;;21.78;56.09;99581.22;5016109;28;45224;-83
2021/07/24 03:49:38;;;;;;;;;6.50;5.50;;;;;21.71;56.58;99581.09;5016059;28;45215;-83
2021/07/24 03:52:04;;;;;;;;;6.00;4.50;;;;;21.66;56.67;99570.00;4998250;28;45399;-83
2021/07/24 03:54:29;;;;;;;;;4.75;4.50;;;;;21.63;56.77;99577.63;5016060;28;45236;-83
2021/07/24 03:56:55;;;;;;;;;6.25;5.25;;;;;21.58;57.10;99585.41;5016021;28;45236;-83
2021/07/24 03:59:20;;;;;;;;;6.00;4.25;;;;;21.46;56.89;99577.72;5016197;28;45390;-83
2021/07/24 04:01:46;;;;;;;;;8.00;4.75;;;;;21.38;57.18;99584.00;5016047;28;45264;-82
2021/07/24 04:04:13;;;;;;;;;4.25;4.25;;;;;21.32;56.82;99590.16;5015731;28;45348;-83
2021/07/24 04:06:38;;;;;;;;;6.25;4.50;;;;;21.26;57.49;99607.06;5016145;28;45578;-83
2021/07/24 04:09:07;;;;;;;;;4.25;4.25;;;;;21.20;57.73;99642.91;5016419;28;45264;-83
2021/07/24 04:11:33;;;;;;;;;5.25;5.25;;;;;21.10;57.85;99670.16;5019447;28;45247;-83
2021/07/24 04:13:58;;;;;;;;;5.50;5.50;;;;;21.00;58.41;99699.25;5019195;28;46138;-83
2021/07/24 04:16:27;;;;;;;;;5.75;4.00;;;;;20.87;58.53;99707.91;5019249;28;45227;-82
2021/07/24 04:18:52;;;;;;;;;7.50;4.00;;;;;20.71;59.08;99670.09;5019228;28;45160;-83
2021/07/24 04:21:19;;;;;;;;;4.25;4.25;;;;;20.69;58.79;99671.13;5001485;28;45389;-82
2021/07/24 04:23:45;;;;;;;;;4.00;3.50;;;;;20.65;59.17;99677.00;5019313;28;46039;-83
2021/07/24 04:26:10;;;;;;;;;6.25;5.00;;;;;20.61;59.57;99689.19;5019273;28;45246;-82
2021/07/24 04:28:35;;;;;;;;;5.25;5.25;;;;;20.55;59.90;99698.81;5019356;28;45296;-83
2021/07/24 04:31:01;;;;;;;;;7.25;6.00;;;;;20.53;59.97;99698.13;5018904;28;45196;-83
2021/07/24 04:33:26;;;;;;;;;7.75;6.50;;;;;20.46;59.87;99700.66;5019092;28;45894;-82
2021/07/24 04:35:51;;;;;;;;;6.00;6.00;;;;;20.39;60.13;99702.34;5018646;28;45276;-82
2021/07/24 04:38:17;;;;;;;;;5.25;5.25;;;;;20.36;60.62;99710.78;5019259;28;45555;-82
2021/07/24 04:40:44;;;;;;;;;5.25;5.25;;;;;20.25;60.60;99703.03;5018937;28;45205;-82
2021/07/24 04:43:10;;;;;;;;;8.25;6.00;;;;;20.17;61.27;99688.53;5019158;28;45363;-83
2021/07/24 04:45:40;;;;;;;;;6.00;5.00;;;;;20.09;61.45;99695.78;5018780;28;45352;-82
2021/07/24 04:48:05;;;;;;;;;7.50;5.25;;;;;20.01;61.92;99693.94;5019279;28;45199;-82
2021/07/24 04:50:31;;;;;;;;;7.50;6.00;;;;;19.98;61.17;99702.34;5019140;28;45120;-82
2021/07/24 04:52:56;;;;;;;;;7.00;5.75;;;;;19.86;60.88;99685.63;5018939;28;45216;-83
2021/07/24 04:55:24;;;;;;;;;10.75;6.00;;;;;19.78;61.46;99672.97;5018597;28;45252;-83
2021/07/24 04:57:50;;;;;;;;;6.25;6.25;;;;;19.83;61.70;99691.38;5018691;28;45046;-82
2021/07/24 05:00:16;;;;;;;;;7.00;5.00;;;;;19.85;61.86;99704.69;5018722;28;45236;-83
2021/07/24 05:02:45;;;;;;;;;7.00;6.00;;;;;19.75;62.12;99692.19;5018870;28;46171;-83
2021/07/24 05:05:10;;;;;;;;;6.00;5.25;;;;;19.78;62.05;99696.38;5018404;28;45237;-83
2021/07/24 05:07:36;;;;;;;;;6.00;6.00;;;;;19.79;62.26;99706.19;5018831;28;45251;-83
2021/07/24 05:10:08;;;;;;;;;7.00;6.50;;;;;19.79;62.09;99714.28;5018487;28;45157;-82
2021/07/24 05:12:33;;;;;;;;;8.25;5.75;;;;;19.80;62.61;99707.88;5018398;28;45921;-82
2021/07/24 05:14:58;;;;;;;;;8.25;7.00;;;;;19.80;62.59;99711.41;5018324;28;45238;-83
2021/07/24 05:17:23;;;;;;;;;7.75;5.75;;;;;19.77;62.18;99700.09;5018741;28;45326;-82
2021/07/24 05:19:49;;;;;;;;;5.25;5.25;;;;;19.79;62.40;99707.03;5000420;28;45324;-82
2021/07/24 05:22:14;;;;;;;;;5.33;5.00;;;;;19.89;62.86;99714.13;5017796;28;46152;-83
2021/07/24 05:24:44;;;;;;;;;8.25;6.25;;;;;19.83;62.36;99703.00;5018101;28;45327;-82
2021/07/24 05:27:10;;;;;;;;;6.50;6.50;;;;;19.83;63.65;99705.69;5018076;28;45206;-82
2021/07/24 05:29:36;;;;;;;;;5.00;5.00;;;;;19.83;62.59;99715.66;5018270;28;45530;-82
2021/07/24 05:32:01;;;;;;;;;7.00;5.75;;;;;19.86;62.80;99706.38;5018203;28;46059;-82
2021/07/24 05:34:27;;;;;;;;;7.25;5.75;;;;;19.78;62.08;99689.16;5018191;28;45220;-83
2021/07/24 05:36:52;;;;;;;;;7.25;5.00;;;;;19.85;62.40;99708.22;5018423;28;45235;-85
2021/07/24 05:39:18;;;;;;;;;8.50;6.25;;;;;19.86;62.05;99701.81;5018518;28;45188;-86
2021/07/24 05:41:43;;;;;;;;;8.25;4.50;;;;;19.80;61.96;99703.31;5018192;28;46261;-86
2021/07/24 05:44:12;;;;;;;;;4.00;4.00;;;;;19.88;61.58;99712.44;5018052;28;45235;-86
2021/07/24 05:46:38;;;;;;;;;5.50;5.50;;;;;19.90;62.08;99716.66;5018629;28;45163;-87
2021/07/24 05:49:03;;;;;;;;;7.00;5.25;;;;;19.91;61.27;99723.75;5018211;28;45112;-86
2021/07/24 05:51:28;;;;;;;;;5.00;5.00;;;;;19.90;61.32;99713.97;5017884;28;45220;-86
2021/07/24 05:53:53;;;;;;;;;5.25;4.00;;;;;19.90;60.76;99707.75;5018202;28;45188;-86
2021/07/24 05:56:19;;;;;;;;;5.00;5.00;;;;;19.92;60.92;99713.81;5018369;28;45184;-86
2021/07/24 05:58:44;;;;;;;;;5.50;4.25;;;;;19.89;60.73;99700.66;5000402;28;45323;-86
2021/07/24 06:01:13;;;;;;;;;5.75;3.75;;;;;19.97;61.55;99708.75;5017550;28;46213;-86
2021/07/24 06:03:39;;;;;;;;;4.75;4.75;;;;;20.02;60.66;99711.78;5017973;28;45248;-86
2021/07/24 06:06:04;;;;;;;;;4.75;4.75;;;;;20.09;61.28;99720.91;5000008;28;45239;-85
2021/07/24 06:08:30;;;;;;;;;5.00;5.00;;;;;20.11;61.29;99707.22;5018243;28;45432;-86
2021/07/24 06:11:03;;;;;;;;;5.50;5.50;;;;;20.16;61.25;99708.41;5017417;28;46599;-86
2021/07/24 06:13:29;;;;;;;;;8.75;5.00;;;;;20.15;61.68;99706.75;5017459;28;45222;-87
2021/07/24 06:15:54;;;;;;;;;8.25;5.00;;;;;20.15;61.24;99698.66;5017517;28;45506;-87
2021/07/24 06:18:23;;;;;;;;;6.25;6.00;;;;;20.27;61.14;99707.25;5017871;28;45281;-87
2021/07/24 06:20:49;;;;;;;;;8.25;6.00;;;;;20.35;61.48;99707.25;5017269;28;45233;-86
2021/07/24 06:23:18;;;;;;;;;6.00;6.00;;;;;20.43;61.38;99711.81;5017546;28;45133;-86
2021/07/24 06:25:44;;;;;;;;;8.25;7.00;;;;;20.46;60.88;99710.63;5017690;28;45177;-87
2021/07/24 06:28:10;;;;;;;;;4.50;4.50;;;;;20.43;60.93;99701.00;5017526;28;45294;-85
2021/07/24 06:30:35;;;;;;;;;4.00;4.00;;;;;20.55;60.41;99703.34;5017203;28;47068;-86
2021/07/24 06:33:01;;;;;;;;;8.00;7.00;;;;;20.59;60.42;99710.94;5016294;28;45243;-85
2021/07/24 06:35:26;;;;;;;;;6.25;5.75;;;;;20.67;60.14;99719.06;5017323;28;45262;-85
2021/07/24 06:37:52;;;;;;;;;4.50;4.00;;;;;20.60;60.06;99701.00;4999553;28;45114;-88
2021/07/24 06:40:17;;;;;;;;;4.00;4.00;;;;;20.67;59.59;99702.03;5017123;28;45204;-85
2021/07/24 06:42:42;;;;;;;;;5.25;5.25;;;;;20.73;59.89;99708.59;5017591;28;45403;-85
2021/07/24 06:45:08;;;;;;;;;5.00;5.00;;;;;20.78;59.45;99712.47;4998979;28;45205;-87
2021/07/24 06:47:33;;;;;;;;;6.50;4.25;;;;;20.78;59.33;99726.00;5017467;28;45276;-87
2021/07/24 06:49:59;;;;;;;;;7.00;7.00;;;;;20.77;59.86;99708.09;5016813;28;45259;-85
2021/07/24 06:52:24;;;;;;;;;7.00;5.67;;;;;20.81;59.06;99716.69;5017212;28;45194;-87
2021/07/24 06:54:50;;;;;;;;;6.75;5.75;;;;;20.89;59.30;99705.03;5017406;28;45327;-86
2021/07/24 06:57:15;;;;;;;;;5.00;5.00;;;;;21.00;58.78;99700.06;5017138;28;45197;-86
2021/07/24 06:59:40;;;;;;;;;7.50;5.75;;;;;21.19;58.29;99703.41;5016898;28;45244;-89
2021/07/24 07:02:06;;;;;;;;;4.50;4.50;;;;;21.33;58.19;99699.13;5017164;28;45175;-86
2021/07/24 07:04:32;;;;;;;;;5.75;4.75;;;;;21.55;57.79;99702.94;5016984;28;45139;-87
2021/07/24 07:06:57;;;;;;;;;3.50;3.50;;;;;21.75;56.96;99702.47;5021459;28;45278;-87
2021/07/24 07:09:23;;;;;;;;;4.00;3.50;;;;;21.80;56.54;99700.91;5036353;28;45181;-87
2021/07/24 07:11:48;;;;;;;;;5.00;5.00;;;;;21.93;56.41;99707.63;5036421;28;45320;-84
2021/07/24 07:14:13;;;;;;;;;5.75;4.50;;;;;22.16;55.85;99716.59;5036851;28;45201;-86
2021/07/24 07:16:39;;;;;;;;;5.75;4.00;;;;;22.31;55.44;99705.81;5036501;28;45435;-86
2021/07/24 07:19:06;;;;;;;;;5.00;3.00;;;;;22.56;55.32;99702.88;5036213;28;45960;-86
2021/07/24 07:21:32;;;;;;;;;6.00;4.00;;;;;22.74;53.56;99705.28;5036057;28;45645;-83
2021/07/24 07:23:57;;;;;;;;;7.50;3.50;;;;;22.75;53.11;99715.09;5036775;28;45195;-84
2021/07/24 07:26:28;;;;;;;;;3.50;2.75;;;;;22.65;53.73;99720.78;5018519;28;45335;-84
2021/07/24 07:28:55;;;;;;;;;5.25;4.75;;;;;22.62;53.81;99709.44;5035971;28;45321;-83
2021/07/24 07:31:21;;;;;;;;;7.25;4.25;;;;;22.62;53.34;99718.44;5035840;28;45292;-84
2021/07/24 07:33:46;;;;;;;;;4.75;3.50;;;;;22.65;53.29;99712.63;5036005;28;45223;-83
2021/07/24 07:36:11;;;;;;;;;4.75;4.00;;;;;22.65;53.95;99738.91;5036165;28;45267;-87
2021/07/24 07:38:36;;;;;;;;;4.50;3.00;;;;;22.67;53.42;99709.75;5036678;28;45209;-89
2021/07/24 07:41:02;;;;;;;;;7.50;4.00;;;;;22.87;53.94;99723.59;5036646;28;45112;-88
2021/07/24 07:43:27;;;;;;;;;4.50;3.00;;;;;23.03;52.95;99722.56;5037024;28;45218;-86
2021/07/24 07:45:52;;;;;;;;;5.00;3.50;;;;;23.12;53.00;99720.66;5033549;28;45305;-87
2021/07/24 07:48:18;;;;;;;;;3.25;3.00;;;;;23.30;52.38;99731.97;5015946;28;46089;-87
2021/07/24 07:50:43;;;;;;;;;5.75;4.00;;;;;23.52;52.12;99724.72;5028678;28;45125;-86
2021/07/24 07:53:09;;;;;;;;;3.75;3.75;;;;;23.60;51.15;99724.63;5016481;28;45191;-84
2021/07/24 07:55:36;;;;;;;;;3.75;2.25;;;;;23.73;50.66;99732.09;5016070;28;45102;-77
2021/07/24 07:58:09;;;;;;;;;4.75;4.00;;;;;23.78;51.02;99724.19;5015764;28;45246;-84
2021/07/24 08:00:34;;;;;;;;;3.00;3.00;;;;;23.89;51.34;99722.91;5015991;28;45233;-86
2021/07/24 08:03:00;;;;;;;;;3.50;3.25;;;;;24.09;50.45;99731.25;5016060;28;45229;-86
2021/07/24 08:05:25;;;;;;;;;7.00;4.50;;;;;24.25;50.12;99742.88;5016127;28;45227;-85
2021/07/24 08:07:51;;;;;;;;;5.00;5.00;;;;;24.28;49.44;99743.34;5015987;28;45219;-85
2021/07/24 08:10:19;;;;;;;;;6.00;3.50;;;;;24.26;49.36;99750.00;5015788;28;45314;-88
2021/07/24 08:12:44;;;;;;;;;5.50;5.00;;;;;24.28;49.97;99747.94;5015643;28;45235;-86
2021/07/24 08:15:10;;;;;;;;;5.75;3.50;;;;;24.33;49.23;99750.91;5015743;28;45164;-85
2021/07/24 08:17:35;;;;;;;;;4.75;4.75;;;;;24.45;49.26;99745.78;5015919;28;45176;-85
2021/07/24 08:20:00;;;;;;;;;4.00;3.25;;;;;24.56;49.33;99737.09;5015351;28;45434;-85
2021/07/24 08:22:26;;;;;;;;;2.00;1.00;;;;;24.74;48.78;99743.97;5016118;28;45283;-87
2021/07/24 08:24:51;;;;;;;;;5.75;3.50;;;;;24.75;49.16;99734.78;5015953;28;45338;-86
2021/07/24 08:27:16;;;;;;;;;4.50;4.50;;;;;24.88;48.73;99751.16;5015886;28;45876;-84
2021/07/24 08:29:41;;;;;;;;;4.50;2.50;;;;;24.96;48.26;99752.91;5015714;28;45270;-88
2021/07/24 08:32:09;;;;;;;;;4.75;3.75;;;;;25.05;48.22;99745.44;5015879;28;45189;-87
2021/07/24 08:34:34;;;;;;;;;4.75;3.00;;;;;25.16;47.73;99742.16;5015743;28;45153;-86
2021/07/24 08:36:59;;;;;;;;;4.50;3.75;;;;;25.11;47.51;99742.78;5015653;28;45712;-87
2021/07/24 08:39:25;;;;;;;;;4.50;3.50;;;;;24.95;47.45;99743.06;5015531;28;45093;-87
2021/07/24 08:41:50;;;;;;;;;5.00;3.50;;;;;24.83;47.62;99747.38;4997456;28;45174;-87
2021/07/24 08:44:15;;;;;;;;;4.00;3.50;;;;;24.68;47.70;99740.16;5015030;28;45236;-85
2021/07/24 08:46:41;;;;;;;;;3.50;3.50;;;;;24.56;47.92;99741.72;5015589;28;46594;-85
2021/07/24 08:49:06;;;;;;;;;4.00;3.00;;;;;24.45;48.90;99719.44;5015299;28;45187;-84
2021/07/24 08:51:35;;;;;;;;;6.50;3.25;;;;;24.50;48.85;99721.59;5015323;28;45184;-90
2021/07/24 08:54:01;;;;;;;;;2.25;2.25;;;;;24.67;49.24;99726.75;5016779;28;45293;-89
2021/07/24 08:56:29;;;;;;;;;4.75;4.25;;;;;24.96;48.70;99725.72;5018062;28;45340;-91
2021/07/24 08:58:56;;;;;;;;;2.50;2.50;;;;;25.27;47.32;99729.91;5020221;28;45582;-90
2021/07/24 09:01:22;;;;;;;;;4.25;3.50;;;;;25.46;47.14;99729.16;5019610;28;45302;-93
2021/07/24 09:03:48;;;;;;;;;2.25;2.25;;;;;25.65;46.08;99733.03;5019721;28;45276;-90
2021/07/24 09:06:21;;;;;;;;;3.75;2.25;;;;;25.65;46.15;99732.16;5020073;28;45373;-89
2021/07/24 09:08:49;;;;;;;;;4.25;2.75;;;;;25.52;45.95;99729.41;5021220;28;45556;-91
2021/07/24 09:11:15;;;;;;;;;3.75;3.75;;;;;25.53;46.42;99739.25;5021450;28;45256;-92
2021/07/24 09:13:41;;;;;;;;;3.00;3.00;;;;;25.53;46.19;99729.19;5003287;28;45498;-90
2021/07/24 09:16:06;;;;;;;;;5.00;3.25;;;;;25.65;46.10;99730.31;5002397;28;47351;-91
2021/07/24 09:18:33;;;;;;;;;5.75;4.25;;;;;25.79;46.28;99724.88;5020878;28;45238;-92
2021/07/24 09:20:58;;;;;;;;;3.00;2.25;;;;;26.10;45.93;99734.44;5020129;28;45153;-92
2021/07/24 09:23:25;;;;;;;;;3.75;3.25;;;;;26.46;43.92;99725.84;5020061;28;45216;-93
2021/07/24 09:25:51;;;;;;;;;2.25;2.25;;;;;26.59;43.93;99727.75;5019866;28;46023;-90
2021/07/24 09:28:17;;;;;;;;;4.25;3.75;;;;;26.60;43.66;99721.25;5019963;28;45170;-91
2021/07/24 09:30:42;;;;;;;;;4.00;4.00;;;;;26.52;43.54;99726.91;5019533;28;45291;-91
2021/07/24 09:33:11;;;;;;;;;4.00;4.00;;;;;26.35;44.10;99730.06;5019880;28;45267;-91
2021/07/24 09:35:52;;;;;;;;;6.25;4.25;;;;;26.32;45.09;99722.31;5019901;28;45337;-90
2021/07/24 09:38:37;;;;;;;;;4.50;3.00;;;;;26.55;44.64;99718.34;5019263;28;45259;-91
2021/07/24 09:41:05;;;;;;;;;3.50;2.75;;;;;26.87;43.55;99724.00;5019119;28;45288;-90
2021/07/24 09:43:44;;;;;;;;;3.50;3.00;;;;;27.09;43.69;99735.47;5019384;28;45228;-92
2021/07/24 09:46:09;;;;;;;;;5.50;3.00;;;;;27.38;43.43;99733.34;5018256;28;46177;-90
2021/07/24 09:48:35;;;;;;;;;5.00;3.50;;;;;27.61;40.48;99740.19;5018747;28;45207;-91
2021/07/24 09:51:01;;;;;;;;;3.75;2.75;;;;;27.50;41.55;99741.69;5018394;28;45209;-91
2021/07/24 09:53:36;;;;;;;;;4.00;3.00;;;;;27.46;42.14;99741.25;5019560;28;45271;-87
2021/07/24 09:56:01;;;;;;;;;5.25;2.25;;;;;27.48;41.05;99735.63;5020245;28;46045;-85
2021/07/24 09:58:27;;;;;;;;;3.00;2.25;;;;;27.62;41.95;99744.56;5020614;28;45386;-89
2021/07/24 10:01:03;;;;;;;;;3.00;1.50;;;;;27.84;41.54;99736.91;5018842;28;45564;-88
2021/07/24 10:03:30;;;;;;;;;3.00;1.75;;;;;27.87;39.39;99739.22;5020612;28;45300;-90
2021/07/24 10:05:56;;;;;;;;;3.50;3.00;;;;;27.64;40.38;99739.75;5022215;28;46382;-90
2021/07/24 10:08:22;;;;;;;;;5.50;3.25;;;;;27.50;40.82;99747.97;5019045;28;45191;-93
2021/07/24 10:10:49;;;;;;;;;3.50;3.50;;;;;27.53;40.77;99743.97;5018130;28;45295;-89
2021/07/24 10:13:15;;;;;;;;;4.00;3.25;;;;;27.51;40.83;99751.56;5018700;28;45121;-90
2021/07/24 10:15:45;;;;;;;;;3.25;2.25;;;;;27.23;40.88;99760.00;5018176;28;47338;-89
2021/07/24 10:18:13;;;;;;;;;5.50;3.00;;;;;26.76;42.10;99749.16;5019427;28;45346;-87
2021/07/24 10:20:40;;;;;;;;;4.00;4.00;;;;;26.40;42.62;99755.84;5018640;28;45385;-88
2021/07/24 10:23:07;;;;;;;;;5.25;3.00;;;;;26.09;43.65;99744.47;5020301;28;45192;-88
2021/07/24 10:25:49;;;;;;;;;3.00;2.00;;;;;25.87;44.23;99735.59;5019273;28;45318;-89
2021/07/24 10:28:22;;;;;;;;;2.25;1.00;;;;;25.89;44.80;99736.22;5018186;28;45178;-91
2021/07/24 10:30:49;;;;;;;;;4.25;4.25;;;;;25.96;44.35;99742.53;5018273;28;45211;-89
2021/07/24 10:33:16;;;;;;;;;3.25;3.25;;;;;26.08;44.19;99747.41;5018047;28;45260;-87
2021/07/24 10:35:43;;;;;;;;;3.00;3.00;;;;;26.19;44.48;99741.34;5017086;28;45187;-88
2021/07/24 10:38:31;;;;;;;;;5.25;4.00;;;;;26.33;44.11;99740.31;5017243;28;45229;-86
2021/07/24 10:41:21;;;;;;;;;5.00;4.25;;;;;26.63;44.03;99739.91;5001520;28;45268;-87
2021/07/24 10:44:10;;;;;;;;;4.50;4.50;;;;;26.97;41.42;99737.19;5019806;28;45265;-90
2021/07/24 10:46:44;;;;;;;;;4.75;2.50;;;;;27.00;42.40;99729.41;5040749;28;45188;-91
2021/07/24 10:49:22;;;;;;;;;3.00;3.00;;;;;27.28;41.99;99716.53;5028278;28;44832;-91
2021/07/24 10:51:57;;;;;;;;;3.00;3.00;;;;;27.60;41.70;99689.34;5026950;28;44611;-92
2021/07/24 10:54:24;;;;;;;;;3.00;3.00;;;;;28.14;40.08;99709.03;5026258;28;45219;-91
2021/07/24 10:56:50;;;;;;;;;3.75;2.25;;;;;28.14;39.88;99670.78;5000312;28;47015;-88
2021/07/24 10:59:23;;;;;;;;;2.75;2.75;;;;;28.29;40.27;99670.44;4998768;28;46168;-89
2021/07/24 11:01:51;;;;;;;;;3.00;3.00;;;;;28.73;39.92;99705.00;5003558;28;45132;-88
2021/07/24 11:04:42;;;;;;;;;2.00;2.00;;;;;28.93;39.58;99710.25;5002238;28;45208;-88
2021/07/24 11:07:13;;;;;;;;;3.00;2.00;;;;;29.03;38.56;99698.78;5017126;28;45180;-88
2021/07/24 11:09:43;;;;;;;;;3.00;3.00;;;;;28.86;38.46;99690.34;5016720;28;45255;-89
2021/07/24 11:12:10;;;;;;;;;4.25;3.00;;;;;28.83;38.20;99709.09;5017330;28;45126;-87
2021/07/24 11:14:38;;;;;;;;;2.00;2.00;;;;;28.55;38.63;99700.28;5017186;28;45271;-88
2021/07/24 11:17:11;;;;;;;;;3.50;2.00;;;;;28.33;38.80;99716.25;4998652;28;48364;-88
2021/07/24 11:19:42;;;;;;;;;1.50;1.50;;;;;28.14;39.26;99707.13;4998218;28;45807;-87
2021/07/24 11:22:08;;;;;;;;;2.50;2.25;;;;;28.04;39.05;99702.13;4999022;28;45166;-89
2021/07/24 11:24:33;;;;;;;;;2.25;1.00;;;;;27.93;38.98;99699.25;4999005;28;45435;-88
2021/07/24 11:26:59;;;;;;;;;5.75;4.00;;;;;27.83;38.86;99695.09;4998792;28;47626;-87
2021/07/24 11:29:25;;;;;;;;;6.25;2.50;;;;;27.71;39.16;99692.22;4998251;28;45249;-88
2021/07/24 11:31:51;;;;;;;;;1.00;1.00;;;;;27.84;39.43;99698.69;4998854;28;45150;-88
2021/07/24 11:34:20;;;;;;;;;4.00;3.00;;;;;27.93;38.86;99678.22;4998749;28;45265;-88
2021/07/24 11:36:49;;;;;;;;;4.00;2.00;;;;;28.29;39.17;99690.41;4998511;28;47303;-88